Time;durP1;ratioP1;P1;durP2;ratioP2;P2;SDS_P1;SDS_P2;PMS_P1;PMS_P2;Temp;Humidity;BMP_temperature;BMP_pressure;BME280_temperature;BME280_humidity;BME280_pressure;Samples;Min_cycle;Max_cycle;Signal;HPM_P1;HPM_P2
2022/06/28 00:01:14;;;;;;;4.43;2.53;;;15.80;99.90;;;;;;5156223;27;20167;-53
2022/06/28 00:03:41;;;;;;;4.65;2.33;;;15.80;99.90;;;;;;5156492;27;20626;-53
2022/06/28 00:06:06;;;;;;;6.80;2.88;;;15.80;99.90;;;;;;5155955;27;20171;-53
2022/06/28 00:08:32;;;;;;;4.03;2.67;;;15.80;99.90;;;;;;5156234;27;20242;-53
2022/06/28 00:10:58;;;;;;;4.55;3.03;;;15.80;99.90;;;;;;5155996;27;20215;-53
2022/06/28 00:13:24;;;;;;;2.28;2.08;;;15.80;99.90;;;;;;5137532;27;20164;-53
2022/06/28 00:16:04;;;;;;;2.92;2.10;;;15.70;99.90;;;;;;5156276;27;20224;-53
2022/06/28 00:18:30;;;;;;;2.90;2.25;;;15.60;99.90;;;;;;5154936;27;20229;-53
2022/06/28 00:20:56;;;;;;;3.75;1.98;;;15.60;99.90;;;;;;5155886;27;20188;-53
2022/06/28 00:23:22;;;;;;;4.10;1.98;;;15.60;99.90;;;;;;5155871;27;20535;-53
2022/06/28 00:25:47;;;;;;;2.10;1.90;;;15.60;99.90;;;;;;5156172;27;20528;-52
2022/06/28 00:28:14;;;;;;;4.65;2.50;;;15.50;99.90;;;;;;5155955;27;20159;-53
2022/06/28 00:30:39;;;;;;;5.82;2.63;;;15.50;99.90;;;;;;5155900;27;20170;-53
2022/06/28 00:33:05;;;;;;;2.40;2.20;;;15.50;99.90;;;;;;5155637;27;20160;-53
2022/06/28 00:35:31;;;;;;;5.43;2.60;;;15.40;99.90;;;;;;5155718;27;20635;-53
2022/06/28 00:37:56;;;;;;;5.97;2.72;;;15.40;99.90;;;;;;5155454;27;20174;-53
2022/06/28 00:40:23;;;;;;;4.47;2.28;;;15.40;99.90;;;;;;5155633;27;20172;-53
2022/06/28 00:42:48;;;;;;;5.15;2.33;;;15.30;99.90;;;;;;5155608;27;20195;-53
2022/06/28 00:45:14;;;;;;;6.80;2.58;;;15.30;99.90;;;;;;5155334;27;20172;-53
2022/06/28 00:47:40;;;;;;;7.90;3.25;;;15.20;99.90;;;;;;5155378;27;20183;-53
2022/06/28 00:50:07;;;;;;;6.40;2.72;;;15.30;99.90;;;;;;5155270;27;20215;-53
2022/06/28 00:52:32;;;;;;;7.07;3.00;;;15.30;99.90;;;;;;5155365;27;20164;-53
2022/06/28 00:54:58;;;;;;;4.00;2.65;;;15.30;99.90;;;;;;5155217;27;20631;-53
2022/06/28 00:57:23;;;;;;;2.63;2.40;;;15.20;99.90;;;;;;5155146;27;20167;-53
2022/06/28 00:59:49;;;;;;;7.57;2.90;;;15.30;99.90;;;;;;5155399;27;20621;-53
2022/06/28 01:02:15;;;;;;;5.43;2.53;;;15.30;99.90;;;;;;5155202;27;20224;-53
2022/06/28 01:04:41;;;;;;;4.70;2.80;;;15.30;99.90;;;;;;5155133;27;21005;-53
2022/06/28 01:07:06;;;;;;;4.90;2.70;;;15.30;99.90;;;;;;5154962;27;20159;-53
2022/06/28 01:09:32;;;;;;;3.88;2.40;;;15.10;99.90;;;;;;5154786;27;20222;-53
2022/06/28 01:11:57;;;;;;;11.20;3.40;;;15.20;99.90;;;;;;5155193;27;20251;-53
2022/06/28 01:14:24;;;;;;;10.07;2.90;;;15.20;99.90;;;;;;5154849;27;20572;-53
2022/06/28 01:16:49;;;;;;;7.65;3.65;;;15.10;99.90;;;;;;5155097;27;20194;-53
2022/06/28 01:19:16;;;;;;;4.88;2.92;;;15.20;99.90;;;;;;5154820;27;20538;-53
2022/06/28 01:21:43;;;;;;;3.97;2.35;;;15.10;99.90;;;;;;5154631;27;20194;-53
2022/06/28 01:24:09;;;;;;;4.32;2.80;;;15.10;99.90;;;;;;5154665;27;20178;-53
2022/06/28 01:26:35;;;;;;;7.95;2.92;;;15.20;99.90;;;;;;5135907;27;20171;-53
2022/06/28 01:29:01;;;;;;;4.00;2.40;;;15.00;99.90;;;;;;5154613;27;20262;-53
2022/06/28 01:31:27;;;;;;;3.13;2.67;;;15.10;99.90;;;;;;5154764;27;20258;-53
2022/06/28 01:33:55;;;;;;;5.75;3.20;;;15.00;99.90;;;;;;5154407;27;20167;-53
2022/06/28 01:36:21;;;;;;;6.78;3.33;;;15.00;99.90;;;;;;5154503;27;20186;-53
2022/06/28 01:38:47;;;;;;;3.33;2.88;;;15.00;99.90;;;;;;5154615;27;20624;-53
2022/06/28 01:43:58;;;;;;;5.15;3.28;;;15.10;99.90;;;;;;5154307;27;20177;-53
2022/06/28 01:46:25;;;;;;;6.78;2.70;;;15.10;99.90;;;;;;5154272;27;20156;-53
2022/06/28 01:48:51;;;;;;;3.35;2.05;;;14.90;99.90;;;;;;5154189;27;20186;-53
2022/06/28 01:51:17;;;;;;;4.15;2.50;;;14.80;99.90;;;;;;5154484;27;20159;-53
2022/06/28 01:53:42;;;;;;;4.80;2.75;;;14.70;99.90;;;;;;5154139;27;20167;-53
2022/06/28 01:56:08;;;;;;;7.57;2.60;;;14.80;99.90;;;;;;5154077;27;20166;-53
2022/06/28 01:58:34;;;;;;;2.90;2.50;;;14.90;99.90;;;;;;5154058;27;20627;-53
2022/06/28 02:00:59;;;;;;;7.88;2.80;;;14.80;99.90;;;;;;5153974;27;20159;-53
2022/06/28 02:03:25;;;;;;;6.15;2.65;;;14.70;99.90;;;;;;5153965;27;20681;-53
2022/06/28 02:05:50;;;;;;;6.20;3.00;;;14.80;99.90;;;;;;5154277;27;20170;-53
2022/06/28 02:08:16;;;;;;;4.30;2.70;;;15.90;99.90;;;;;;5135668;27;20203;-53
2022/06/28 02:10:42;;;;;;;9.20;3.20;;;14.90;99.90;;;;;;5153691;27;20214;-53
2022/06/28 02:13:07;;;;;;;5.68;3.20;;;15.00;99.90;;;;;;5153684;27;20171;-53
2022/06/28 02:15:33;;;;;;;5.38;2.50;;;14.90;99.90;;;;;;5153887;27;20238;-53
2022/06/28 02:17:59;;;;;;;4.05;2.90;;;14.90;99.90;;;;;;5153748;27;20214;-53
2022/06/28 02:20:25;;;;;;;8.63;2.38;;;14.90;99.90;;;;;;5153961;27;20181;-53
2022/06/28 02:22:50;;;;;;;7.68;3.45;;;14.80;99.90;;;;;;5154010;27;20198;-53
2022/06/28 02:25:17;;;;;;;7.13;2.15;;;14.70;99.90;;;;;;5153969;27;20293;-53
2022/06/28 02:27:43;;;;;;;4.65;2.30;;;14.70;99.90;;;;;;5153607;27;20159;-53
2022/06/28 02:30:10;;;;;;;8.32;2.45;;;14.80;99.90;;;;;;5153816;27;20543;-53
2022/06/28 02:32:36;;;;;;;6.25;2.28;;;14.70;99.90;;;;;;5153514;27;20159;-53
2022/06/28 02:40:30;;;;;;;12.38;2.63;;;14.60;99.90;;;;;;5153810;27;20207;-53
2022/06/28 02:42:57;;;;;;;7.85;2.60;;;14.50;99.90;;;;;;5157407;27;20290;-53
2022/06/28 02:45:29;;;;;;;8.52;2.80;;;14.40;99.90;;;;;;5157745;27;20651;-53
2022/06/28 02:47:55;;;;;;;6.80;2.30;;;14.50;99.90;;;;;;5157724;27;20673;-53
2022/06/28 02:50:21;;;;;;;7.97;2.97;;;14.50;99.90;;;;;;5158064;27;20171;-53
2022/06/28 02:52:47;;;;;;;9.40;2.63;;;14.50;99.90;;;;;;5158231;27;20167;-53
2022/06/28 02:55:13;;;;;;;5.50;2.65;;;14.50;99.90;;;;;;5157782;27;20512;-53
2022/06/28 02:57:39;;;;;;;8.52;3.05;;;14.40;99.90;;;;;;5157589;27;20576;-53
2022/06/28 03:00:12;;;;;;;6.53;2.97;;;14.40;99.90;;;;;;5157492;27;20696;-53
2022/06/28 03:02:39;;;;;;;8.27;3.03;;;14.40;99.90;;;;;;5157328;27;20198;-53
2022/06/28 03:05:10;;;;;;;10.57;3.47;;;14.30;99.90;;;;;;5157390;27;20164;-53
2022/06/28 03:07:36;;;;;;;6.90;2.60;;;14.30;99.90;;;;;;5157309;27;20178;-53
2022/06/28 03:10:03;;;;;;;4.75;2.47;;;14.20;99.90;;;;;;5157183;27;20609;-53
2022/06/28 03:12:29;;;;;;;14.40;3.17;;;14.20;99.90;;;;;;5157384;27;20163;-53
2022/06/28 03:14:55;;;;;;;7.22;2.30;;;14.30;99.90;;;;;;5157282;27;20186;-53
2022/06/28 03:17:20;;;;;;;10.18;3.00;;;14.20;99.90;;;;;;5157409;27;20200;-53
2022/06/28 03:19:46;;;;;;;18.38;3.70;;;14.20;99.90;;;;;;5157412;27;20164;-52
2022/06/28 03:22:12;;;;;;;4.93;2.88;;;14.20;99.90;;;;;;5138432;27;20199;-53
2022/06/28 03:24:37;;;;;;;14.45;3.03;;;14.20;99.90;;;;;;5157040;27;20753;-53
2022/06/28 03:27:03;;;;;;;14.05;3.25;;;14.20;99.90;;;;;;5157137;27;20163;-53
2022/06/28 03:29:29;;;;;;;12.93;3.13;;;14.20;99.90;;;;;;5156923;27;20171;-53
2022/06/28 03:31:54;;;;;;;7.15;3.05;;;14.30;99.90;;;;;;5156811;27;20620;-52
2022/06/28 03:34:20;;;;;;;10.65;2.88;;;14.20;99.90;;;;;;5157332;27;20240;-53
2022/06/28 03:36:48;;;;;;;11.20;3.72;;;14.20;99.90;;;;;;5156757;27;20155;-53
2022/06/28 03:39:14;;;;;;;7.78;2.80;;;14.10;99.90;;;;;;5156978;27;20258;-53
2022/06/28 03:41:40;;;;;;;5.68;2.92;;;14.20;99.90;;;;;;5156585;27;20278;-53
2022/06/28 03:44:05;;;;;;;9.95;2.97;;;14.30;99.90;;;;;;5156696;27;20159;-53
2022/06/28 03:46:31;;;;;;;15.82;3.22;;;14.20;99.90;;;;;;5156568;27;20566;-53
2022/06/28 03:48:57;;;;;;;8.70;3.15;;;14.20;99.90;;;;;;5156329;27;20624;-53
2022/06/28 03:51:22;;;;;;;11.30;3.03;;;14.20;99.90;;;;;;5156463;27;20163;-53
2022/06/28 03:53:48;;;;;;;14.38;2.85;;;14.30;99.90;;;;;;5156789;27;20170;-53
2022/06/28 03:56:14;;;;;;;10.73;3.35;;;14.20;99.90;;;;;;5137897;27;20177;-53
2022/06/28 03:58:39;;;;;;;12.82;3.38;;;14.40;99.90;;;;;;5156336;27;20504;-53
2022/06/28 04:01:05;;;;;;;7.88;2.83;;;14.30;99.90;;;;;;5156276;27;20199;-53
2022/06/28 04:03:31;;;;;;;8.63;3.35;;;14.20;99.90;;;;;;5156270;27;20604;-53
2022/06/28 04:05:56;;;;;;;8.30;3.67;;;14.30;99.90;;;;;;5156183;27;20166;-53
2022/06/28 04:08:22;;;;;;;6.28;3.13;;;14.30;99.90;;;;;;5156167;27;20160;-53
2022/06/28 04:10:48;;;;;;;8.77;2.83;;;14.20;99.90;;;;;;5156305;27;20343;-53
2022/06/28 04:13:14;;;;;;;8.30;3.08;;;14.30;99.90;;;;;;5156446;27;20211;-53
2022/06/28 04:15:39;;;;;;;7.53;2.70;;;14.40;99.90;;;;;;5155992;27;20170;-53
2022/06/28 04:18:06;;;;;;;6.35;2.80;;;14.40;99.90;;;;;;5155930;27;20163;-53
2022/06/28 04:20:32;;;;;;;13.13;3.85;;;14.40;99.90;;;;;;5156004;27;20155;-53
2022/06/28 04:22:58;;;;;;;6.60;3.20;;;14.30;99.90;;;;;;5155825;27;20700;-53
2022/06/28 04:25:24;;;;;;;6.35;3.10;;;14.30;99.90;;;;;;5155860;27;20168;-53
2022/06/28 04:27:50;;;;;;;6.95;2.92;;;14.40;99.90;;;;;;5156360;27;20175;-53
2022/06/28 04:30:15;;;;;;;6.68;3.17;;;14.50;99.90;;;;;;5155990;27;20177;-53
2022/06/28 04:32:41;;;;;;;8.45;3.35;;;14.60;99.90;;;;;;5155554;27;20632;-53
2022/06/28 04:35:07;;;;;;;7.20;3.15;;;14.70;99.90;;;;;;5155023;27;20650;-53
2022/06/28 04:37:32;;;;;;;10.60;2.60;;;14.80;99.90;;;;;;5155376;27;20159;-53
2022/06/28 04:39:58;;;;;;;12.70;3.47;;;15.10;99.90;;;;;;5155535;27;20170;-53
2022/06/28 04:42:24;;;;;;;14.32;2.55;;;15.40;99.90;;;;;;5155377;27;20233;-53
2022/06/28 04:44:49;;;;;;;10.95;3.42;;;15.50;99.90;;;;;;5155690;27;20534;-53
2022/06/28 04:47:15;;;;;;;10.30;2.78;;;15.70;99.90;;;;;;5155340;27;20174;-52
2022/06/28 04:49:41;;;;;;;14.73;3.42;;;15.80;99.90;;;;;;5155407;27;20198;-53
2022/06/28 04:52:07;;;;;;;15.75;2.95;;;16.00;99.90;;;;;;5155219;27;20163;-53
2022/06/28 04:54:33;;;;;;;16.02;3.78;;;16.20;99.90;;;;;;5136543;27;20163;-53
2022/06/28 04:56:58;;;;;;;8.90;2.72;;;16.20;99.90;;;;;;5155107;27;20159;-53
2022/06/28 04:59:24;;;;;;;14.13;3.35;;;16.50;99.90;;;;;;5136479;27;20167;-54
2022/06/28 05:01:49;;;;;;;17.60;2.70;;;16.50;99.90;;;;;;5155220;27;20793;-54
2022/06/28 05:04:15;;;;;;;14.32;3.63;;;16.60;99.90;;;;;;5154546;27;20159;-53
2022/06/28 05:06:40;;;;;;;16.35;2.92;;;16.50;99.90;;;;;;5155300;27;20636;-53
2022/06/28 05:09:06;;;;;;;12.73;2.65;;;16.60;99.90;;;;;;5154765;27;20668;-53
2022/06/28 05:11:32;;;;;;;8.73;3.03;;;16.60;99.90;;;;;;5154923;27;20167;-53
2022/06/28 05:13:59;;;;;;;11.00;3.10;;;16.70;99.90;;;;;;5154859;27;20638;-53
2022/06/28 05:16:24;;;;;;;10.27;2.80;;;16.90;99.90;;;;;;5154797;27;20198;-53
2022/06/28 05:18:50;;;;;;;10.13;3.35;;;16.90;99.90;;;;;;5155319;27;20195;-53
2022/06/28 05:21:16;;;;;;;10.88;2.97;;;17.00;99.90;;;;;;5154820;27;20680;-54
2022/06/28 05:23:41;;;;;;;7.45;2.72;;;17.10;99.90;;;;;;5136071;27;20167;-54
2022/06/28 05:26:07;;;;;;;9.98;3.35;;;17.10;99.90;;;;;;5154585;27;20163;-53
2022/06/28 05:28:33;;;;;;;9.55;2.90;;;17.10;99.90;;;;;;5154566;27;20655;-54
2022/06/28 05:30:58;;;;;;;11.27;3.00;;;17.30;99.90;;;;;;5136010;27;20168;-53
2022/06/28 05:33:24;;;;;;;9.82;2.63;;;17.30;99.90;;;;;;5154469;27;20167;-53
2022/06/28 05:35:50;;;;;;;6.47;2.50;;;17.30;99.90;;;;;;5154799;27;20168;-54
2022/06/28 05:38:16;;;;;;;5.28;2.17;;;17.30;99.90;;;;;;5154977;27;20530;-54
2022/06/28 05:40:41;;;;;;;6.80;2.47;;;17.40;99.90;;;;;;5154339;27;20164;-54
2022/06/28 05:43:08;;;;;;;10.68;2.53;;;17.50;99.90;;;;;;5154389;27;20659;-54
2022/06/28 05:45:33;;;;;;;13.38;3.08;;;17.50;99.90;;;;;;5154327;27;20159;-54
2022/06/28 05:47:59;;;;;;;6.93;2.20;;;17.60;99.90;;;;;;5154259;27;20236;-54
2022/06/28 05:50:25;;;;;;;4.93;2.25;;;17.70;99.90;;;;;;5154191;27;20238;-54
2022/06/28 05:52:51;;;;;;;10.27;2.03;;;17.70;99.90;;;;;;5154359;27;20171;-53
2022/06/28 05:55:16;;;;;;;7.95;1.95;;;17.80;99.90;;;;;;5154629;27;20647;-53
2022/06/28 05:57:42;;;;;;;5.50;1.80;;;17.90;99.90;;;;;;5154050;27;20591;-53
2022/06/28 06:00:09;;;;;;;12.30;2.33;;;17.90;99.90;;;;;;5153913;27;20159;-53
2022/06/28 06:02:35;;;;;;;11.30;2.13;;;17.90;99.90;;;;;;5153911;27;20671;-53
2022/06/28 06:05:02;;;;;;;6.05;2.00;;;17.90;99.90;;;;;;5135389;27;20223;-53
2022/06/28 06:07:31;;;;;;;4.50;1.95;;;17.90;99.90;;;;;;5153725;27;20202;-53
2022/06/28 06:09:57;;;;;;;7.55;2.28;;;17.90;99.90;;;;;;5153650;27;20210;-53
2022/06/28 06:12:22;;;;;;;9.95;1.95;;;17.80;99.90;;;;;;5153829;27;20227;-53
2022/06/28 06:14:48;;;;;;;8.98;2.08;;;17.90;99.90;;;;;;5154137;27;20159;-53
2022/06/28 06:17:14;;;;;;;4.80;2.00;;;18.00;99.90;;;;;;5152814;27;20160;-53
2022/06/28 06:19:39;;;;;;;3.42;1.80;;;18.10;99.90;;;;;;5153990;27;20167;-53
2022/06/28 06:22:05;;;;;;;4.80;2.03;;;18.20;99.90;;;;;;5153655;27;20539;-54
2022/06/28 06:24:31;;;;;;;5.75;1.75;;;18.10;99.90;;;;;;5153857;27;20167;-53
2022/06/28 06:26:56;;;;;;;6.00;1.90;;;18.10;99.90;;;;;;5153577;27;20167;-54
2022/06/28 06:29:22;;;;;;;6.72;2.10;;;18.00;99.90;;;;;;5153526;27;20167;-53
2022/06/28 06:31:47;;;;;;;5.88;2.05;;;18.30;99.90;;;;;;5153782;27;20174;-54
2022/06/28 06:34:14;;;;;;;3.70;1.70;;;18.10;99.90;;;;;;5153519;27;20168;-54
2022/06/28 06:36:40;;;;;;;10.05;2.33;;;18.30;99.90;;;;;;5153494;27;20155;-53
2022/06/28 06:39:07;;;;;;;7.50;2.10;;;18.50;99.90;;;;;;5153648;27;20190;-53
2022/06/28 06:41:33;;;;;;;10.18;2.70;;;18.60;99.90;;;;;;5153360;27;20700;-54
2022/06/28 06:43:59;;;;;;;2.78;2.00;;;18.50;99.90;;;;;;5153436;27;20167;-54
2022/06/28 06:46:25;;;;;;;6.78;2.28;;;18.60;99.90;;;;;;5134897;27;20212;-54
2022/06/28 06:48:51;;;;;;;18.17;3.22;;;18.60;99.90;;;;;;5153695;27;20170;-53
2022/06/28 06:51:17;;;;;;;14.75;2.90;;;18.60;99.90;;;;;;5153869;27;20167;-54
2022/06/28 06:53:42;;;;;;;19.92;6.47;;;18.80;99.90;;;;;;5153525;27;20167;-53
2022/06/28 06:56:08;;;;;;;6.78;2.78;;;18.80;99.90;;;;;;5153294;27;20246;-53
2022/06/28 06:58:33;;;;;;;6.00;2.30;;;18.90;99.90;;;;;;5153292;27;20198;-53
2022/06/28 07:00:59;;;;;;;10.55;2.83;;;18.90;99.90;;;;;;5153303;27;20163;-53
2022/06/28 07:03:25;;;;;;;7.82;2.60;;;18.90;99.90;;;;;;5153100;27;20255;-53
2022/06/28 07:05:50;;;;;;;5.50;2.35;;;18.90;99.90;;;;;;5153576;27;20164;-53
2022/06/28 07:08:16;;;;;;;7.80;2.60;;;18.70;99.90;;;;;;5134978;27;20219;-53
2022/06/28 07:10:42;;;;;;;8.82;2.25;;;19.30;99.90;;;;;;5152961;27;20230;-53
2022/06/28 07:13:07;;;;;;;7.95;3.17;;;19.10;99.90;;;;;;5153057;27;20166;-53
2022/06/28 07:15:33;;;;;;;12.07;2.75;;;19.00;99.90;;;;;;5134614;27;20163;-53
2022/06/28 07:17:58;;;;;;;7.00;2.60;;;19.30;99.90;;;;;;5153048;27;20204;-53
2022/06/28 07:20:24;;;;;;;21.17;3.72;;;19.30;99.90;;;;;;5153095;27;20252;-53
2022/06/28 07:22:50;;;;;;;9.25;2.60;;;19.40;99.90;;;;;;5134770;27;20343;-53
2022/06/28 07:25:15;;;;;;;8.35;2.75;;;19.70;99.90;;;;;;5153109;27;20184;-54
2022/06/28 07:27:41;;;;;;;8.43;2.65;;;19.80;99.90;;;;;;5154532;27;20175;-53
2022/06/28 07:30:08;;;;;;;13.52;2.95;;;19.90;99.90;;;;;;5156955;27;20170;-53
2022/06/28 07:32:34;;;;;;;10.02;3.13;;;19.90;99.90;;;;;;5156918;27;20275;-53
2022/06/28 07:34:59;;;;;;;3.28;1.42;;;20.00;99.90;;;;;;5156963;27;20623;-53
2022/06/28 07:37:25;;;;;;;10.25;2.33;;;19.90;99.90;;;;;;5156622;27;20163;-53
2022/06/28 07:39:51;;;;;;;8.63;2.42;;;20.20;99.90;;;;;;5156998;27;20254;-53
2022/06/28 07:42:16;;;;;;;5.43;2.92;;;20.30;99.90;;;;;;5156880;27;20223;-53
2022/06/28 07:44:42;;;;;;;10.40;2.50;;;20.50;99.90;;;;;;5156592;27;20564;-53
2022/06/28 07:47:08;;;;;;;7.90;2.60;;;20.50;99.90;;;;;;5156541;27;20159;-53
2022/06/28 07:52:36;;;;;;;4.57;1.67;;;20.40;99.90;;;;;;5141168;27;20269;-53
2022/06/28 07:55:04;;;;;;;5.20;1.83;;;20.50;99.90;;;;;;5156506;27;20220;-53
2022/06/28 07:57:30;;;;;;;5.72;1.58;;;20.60;99.90;;;;;;5156760;27;20167;-53
2022/06/28 07:59:56;;;;;;;6.88;1.77;;;20.50;99.90;;;;;;5156289;27;20483;-53
2022/06/28 08:02:23;;;;;;;4.97;1.90;;;20.50;99.90;;;;;;5156267;27;20194;-53
2022/06/28 08:04:49;;;;;;;6.25;1.92;;;20.40;99.90;;;;;;5156544;27;20210;-53
2022/06/28 08:07:14;;;;;;;3.65;1.45;;;20.60;99.90;;;;;;5156189;27;20168;-53
2022/06/28 08:09:40;;;;;;;4.50;1.70;;;20.50;99.90;;;;;;5156026;27;20207;-53
2022/06/28 08:12:07;;;;;;;5.07;1.50;;;20.40;99.90;;;;;;5156415;27;20258;-53
2022/06/28 08:14:33;;;;;;;3.03;1.65;;;20.70;99.90;;;;;;5137490;27;20304;-53
2022/06/28 08:16:58;;;;;;;4.50;1.70;;;20.40;99.90;;;;;;5156048;27;20207;-53
2022/06/28 08:19:24;;;;;;;6.03;2.10;;;20.50;99.90;;;;;;5155953;27;20167;-55
2022/06/28 08:21:50;;;;;;;5.18;2.55;;;20.50;99.90;;;;;;5156093;27;20205;-53
2022/06/28 08:24:16;;;;;;;4.13;2.10;;;20.40;99.90;;;;;;5156186;27;20170;-53
2022/06/28 08:26:42;;;;;;;7.57;1.85;;;20.30;99.90;;;;;;5155895;27;20159;-53
2022/06/28 08:29:15;;;;;;;4.38;1.80;;;20.50;99.90;;;;;;5155979;27;20171;-53
2022/06/28 08:31:41;;;;;;;5.35;1.92;;;20.30;99.90;;;;;;5156017;27;20589;-53
2022/06/28 08:34:07;;;;;;;3.92;1.98;;;20.20;99.90;;;;;;5155685;27;20232;-53
2022/06/28 08:36:33;;;;;;;6.18;2.22;;;20.10;99.90;;;;;;5155686;27;20627;-53
2022/06/28 08:38:59;;;;;;;7.38;1.90;;;20.40;99.90;;;;;;5154666;27;20202;-53
2022/06/28 08:41:31;;;;;;;4.40;1.95;;;20.40;99.90;;;;;;5155376;27;20720;-53
2022/06/28 08:43:56;;;;;;;6.47;2.25;;;20.80;99.90;;;;;;5155531;27;20179;-53
2022/06/28 08:46:24;;;;;;;12.23;3.15;;;20.60;99.90;;;;;;5155518;27;20246;-53
2022/06/28 08:49:03;;;;;;;8.32;1.92;;;20.20;99.90;;;;;;5155637;27;20179;-53
2022/06/28 08:51:32;;;;;;;9.13;2.42;;;20.10;99.90;;;;;;5155318;27;20167;-53
2022/06/28 08:54:01;;;;;;;6.32;1.92;;;20.50;99.90;;;;;;5155306;27;20175;-54
2022/06/28 08:56:27;;;;;;;4.35;1.90;;;20.80;99.90;;;;;;5155182;27;20163;-53
2022/06/28 08:58:55;;;;;;;4.80;1.85;;;20.60;99.90;;;;;;5155437;27;20178;-53
2022/06/28 09:01:21;;;;;;;6.13;1.80;;;20.50;99.90;;;;;;5155363;27;20212;-53
2022/06/28 09:03:51;;;;;;;6.95;1.67;;;20.90;99.90;;;;;;5155369;27;20594;-53
2022/06/28 09:06:17;;;;;;;3.50;1.58;;;21.30;99.90;;;;;;5155368;27;20624;-53
2022/06/28 09:08:42;;;;;;;5.30;1.67;;;21.50;99.90;;;;;;5155106;27;20300;-53
2022/06/28 09:11:08;;;;;;;5.55;1.73;;;21.70;99.90;;;;;;5154835;27;20309;-53
2022/06/28 09:13:37;;;;;;;9.52;2.20;;;21.90;99.90;;;;;;5154814;27;20195;-53
2022/06/28 09:16:04;;;;;;;13.90;2.47;;;21.90;99.90;;;;;;5154852;27;20195;-53
2022/06/28 09:18:36;;;;;;;3.03;1.45;;;22.00;99.90;;;;;;5155004;27;20171;-53
2022/06/28 09:21:05;;;;;;;5.75;1.55;;;21.70;99.90;;;;;;5154822;27;20635;-54
2022/06/28 09:23:36;;;;;;;10.13;2.20;;;21.90;99.90;;;;;;5154638;27;20214;-53
2022/06/28 09:26:10;;;;;;;4.78;1.98;;;21.40;99.90;;;;;;5154708;27;20159;-53
2022/06/28 09:28:42;;;;;;;2.42;1.50;;;21.60;99.90;;;;;;5154528;27;20214;-53
2022/06/28 09:31:19;;;;;;;4.55;1.63;;;21.30;99.90;;;;;;5154593;27;20189;-53
2022/06/28 09:34:07;;;;;;;4.63;1.50;;;21.70;99.90;;;;;;5154450;27;20191;-53
2022/06/28 09:36:38;;;;;;;6.47;1.52;;;21.40;99.90;;;;;;5154448;27;20520;-53
2022/06/28 09:39:17;;;;;;;3.65;1.42;;;21.10;99.90;;;;;;5154641;27;20250;-53
2022/06/28 09:41:52;;;;;;;3.08;1.88;;;21.20;99.90;;;;;;5154420;27;20292;-53
2022/06/28 09:44:17;;;;;;;4.93;1.60;;;21.10;99.90;;;;;;5154929;27;20186;-53
2022/06/28 09:46:44;;;;;;;3.95;1.50;;;21.40;99.90;;;;;;5154134;27;20674;-53
2022/06/28 09:49:12;;;;;;;6.45;2.42;;;21.70;99.90;;;;;;5154187;27;20168;-53
2022/06/28 09:51:38;;;;;;;2.72;1.40;;;22.00;99.90;;;;;;5154084;27;20183;-53
2022/06/28 09:54:06;;;;;;;6.25;1.92;;;22.20;99.90;;;;;;5154166;27;20163;-53
2022/06/28 09:56:38;;;;;;;6.30;2.00;;;22.60;99.90;;;;;;5154318;27;20195;-53
2022/06/28 09:59:05;;;;;;;4.80;2.03;;;22.90;99.90;;;;;;5154011;27;20254;-53
2022/06/28 10:01:31;;;;;;;6.28;1.67;;;23.00;99.90;;;;;;5153959;27;20255;-53
2022/06/28 10:03:58;;;;;;;5.70;2.30;;;23.00;99.90;;;;;;5154020;27;20247;-53
2022/06/28 10:06:24;;;;;;;8.63;2.33;;;23.00;99.90;;;;;;5154228;27;20557;-53
2022/06/28 10:08:50;;;;;;;6.10;2.33;;;23.20;99.90;;;;;;5153699;27;20211;-53
2022/06/28 10:11:17;;;;;;;5.72;2.00;;;23.30;99.90;;;;;;5154339;27;20250;-53
2022/06/28 10:16:34;;;;;;;6.60;2.75;;;23.50;99.90;;;;;;5154035;27;20240;-53
2022/06/28 10:19:03;;;;;;;5.75;2.60;;;23.70;99.90;;;;;;5153593;27;20165;-53
2022/06/28 10:21:45;;;;;;;6.93;2.50;;;23.90;99.90;;;;;;5153622;27;20284;-53
2022/06/28 10:24:12;;;;;;;19.25;3.50;;;24.20;99.90;;;;;;5153560;27;20174;-52
2022/06/28 10:26:38;;;;;;;5.50;2.42;;;24.30;99.90;;;;;;5153665;27;20562;-52
2022/06/28 10:29:09;;;;;;;4.85;2.20;;;24.10;99.90;;;;;;5153801;27;20163;-53
2022/06/28 10:31:44;;;;;;;6.25;2.40;;;23.50;99.90;;;;;;5153717;27;20227;-52
2022/06/28 10:34:16;;;;;;;7.03;2.53;;;23.10;99.90;;;;;;5153769;27;20258;-53
2022/06/28 10:36:49;;;;;;;4.75;2.38;;;23.00;99.90;;;;;;5153433;27;20505;-53
2022/06/28 10:39:18;;;;;;;7.40;2.33;;;22.70;99.90;;;;;;5153395;27;20167;-53
2022/06/28 10:41:48;;;;;;;9.23;3.33;;;22.90;99.90;;;;;;5153327;27;20194;-53
2022/06/28 10:44:18;;;;;;;4.25;2.35;;;22.80;99.90;;;;;;5153615;27;20171;-52
2022/06/28 10:47:09;;;;;;;4.38;2.58;;;22.90;99.90;;;;;;5153161;27;20632;-53
2022/06/28 10:49:46;;;;;;;7.97;2.28;;;23.20;99.90;;;;;;5137509;27;20550;-53
2022/06/28 10:52:24;;;;;;;7.03;2.00;;;23.30;99.90;;;;;;5153270;27;20250;-53
2022/06/28 10:54:52;;;;;;;3.85;1.98;;;23.50;99.90;;;;;;5153651;27;20167;-53
2022/06/28 10:57:35;;;;;;;7.43;2.40;;;23.50;99.90;;;;;;5153514;27;20159;-53
2022/06/28 11:00:05;;;;;;;8.40;3.30;;;23.70;99.90;;;;;;5153077;27;20258;-53
2022/06/28 11:02:49;;;;;;;7.97;2.97;;;23.80;99.90;;;;;;5154689;27;20202;-53
2022/06/28 11:05:16;;;;;;;4.40;2.25;;;24.10;99.90;;;;;;5157309;27;20159;-52
2022/06/28 11:07:55;;;;;;;6.78;2.45;;;24.20;99.90;;;;;;5157188;27;20164;-53
2022/06/28 11:10:21;;;;;;;5.53;2.50;;;24.00;99.90;;;;;;5157196;27;20225;-53
2022/06/28 11:12:46;;;;;;;5.95;2.03;;;23.70;99.90;;;;;;5157590;27;20190;-53
2022/06/28 11:15:36;;;;;;;6.05;2.78;;;24.10;99.90;;;;;;5157152;27;20156;-53
2022/06/28 11:18:02;;;;;;;5.25;2.10;;;24.50;99.90;;;;;;5157165;27;20238;-52
2022/06/28 11:20:30;;;;;;;5.57;2.75;;;24.70;99.90;;;;;;5156920;27;20587;-53
2022/06/28 11:22:56;;;;;;;4.38;2.38;;;24.70;99.90;;;;;;5156974;27;20258;-53
2022/06/28 11:27:19;;;;;;;4.72;2.33;;;25.00;99.90;;;;;;5157023;27;20163;-53
2022/06/28 11:28:14;;;;;;;4.05;2.42;;;25.00;99.90;;;;;;5156690;27;20171;-53
2022/06/28 11:30:42;;;;;;;5.28;2.35;;;25.10;99.90;;;;;;5156873;27;20163;-53
2022/06/28 11:33:08;;;;;;;4.95;2.45;;;25.10;99.90;;;;;;5156713;27;20627;-53
2022/06/28 11:35:34;;;;;;;3.97;2.17;;;24.70;99.90;;;;;;5157053;27;20167;-53
2022/06/28 11:38:09;;;;;;;5.45;2.65;;;25.00;99.90;;;;;;5156431;27;20643;-53
2022/06/28 11:40:47;;;;;;;3.58;2.00;;;25.50;99.90;;;;;;5156626;27;20246;-52
2022/06/28 11:43:14;;;;;;;5.25;2.58;;;25.20;99.90;;;;;;5156481;27;20213;-53
2022/06/28 11:45:46;;;;;;;4.78;2.30;;;24.60;99.90;;;;;;5156421;27;20170;-53
2022/06/28 11:48:15;;;;;;;7.63;3.47;;;25.00;99.90;;;;;;5156509;27;20155;-53
2022/06/28 11:50:45;;;;;;;11.20;2.67;;;25.30;99.90;;;;;;5156507;27;20615;-53
2022/06/28 11:53:12;;;;;;;12.07;2.47;;;25.30;99.90;;;;;;5137838;27;20178;-53
2022/06/28 11:55:52;;;;;;;6.97;2.22;;;25.50;99.90;;;;;;5156434;27;20198;-53
2022/06/28 11:58:25;;;;;;;8.38;2.08;;;25.90;99.90;;;;;;5156646;27;20212;-53
2022/06/28 12:01:12;;;;;;;5.45;2.05;;;25.80;99.90;;;;;;5156502;27;20216;-53
2022/06/28 12:03:41;;;;;;;4.25;1.60;;;25.20;99.90;;;;;;5156178;27;20195;-53
2022/06/28 12:06:08;;;;;;;8.05;2.10;;;25.00;99.90;;;;;;5156187;27;20181;-53
2022/06/28 12:08:41;;;;;;;3.47;1.92;;;25.30;99.80;;;;;;5156167;27;20177;-53
2022/06/28 12:11:07;;;;;;;4.28;1.83;;;25.50;97.40;;;;;;5155979;27;20211;-53
2022/06/28 12:13:33;;;;;;;4.82;1.67;;;25.80;97.40;;;;;;5155026;27;20178;-53
2022/06/28 12:15:59;;;;;;;5.15;1.60;;;26.00;95.20;;;;;;5155914;27;20216;-53
2022/06/28 12:18:24;;;;;;;9.93;2.40;;;26.30;94.20;;;;;;5155975;27;20174;-53
2022/06/28 12:20:58;;;;;;;5.00;2.47;;;26.40;97.30;;;;;;5156212;27;20163;-53
2022/06/28 12:23:24;;;;;;;4.50;1.60;;;26.40;96.60;;;;;;5155749;27;20206;-53
2022/06/28 12:26:00;;;;;;;3.92;2.10;;;26.40;96.90;;;;;;5156185;27;20518;-53
2022/06/28 12:28:26;;;;;;;3.13;1.90;;;26.10;95.40;;;;;;5155697;27;20170;-53
2022/06/28 12:30:51;;;;;;;3.50;1.65;;;26.50;94.90;;;;;;5155666;27;20523;-53
2022/06/28 12:33:17;;;;;;;3.25;1.65;;;26.70;93.10;;;;;;5155672;27;20170;-53
2022/06/28 12:35:42;;;;;;;4.80;1.73;;;26.80;92.10;;;;;;5155656;27;20163;-53
2022/06/28 12:38:08;;;;;;;3.78;1.48;;;26.90;93.00;;;;;;5155251;27;20640;-53
2022/06/28 12:40:34;;;;;;;1.73;1.27;;;26.90;93.00;;;;;;5155244;27;20171;-53
2022/06/28 12:42:59;;;;;;;4.35;1.55;;;26.90;89.80;;;;;;5155309;27;20279;-53
2022/06/28 12:45:25;;;;;;;4.32;2.03;;;27.00;91.40;;;;;;5155110;27;20162;-53
2022/06/28 12:47:50;;;;;;;4.93;1.38;;;26.60;90.30;;;;;;5155514;27;20520;-53
2022/06/28 12:50:16;;;;;;;2.47;1.17;;;26.70;88.10;;;;;;5155720;27;20163;-53
2022/06/28 12:52:43;;;;;;;3.38;1.80;;;26.90;87.80;;;;;;5155581;27;20170;-53
2022/06/28 12:55:10;;;;;;;5.30;1.83;;;27.00;85.40;;;;;;5155342;27;20186;-53
2022/06/28 12:57:37;;;;;;;11.82;2.50;;;27.00;86.50;;;;;;5155460;27;20167;-53
2022/06/28 13:00:06;;;;;;;3.03;1.48;;;27.20;87.70;;;;;;5155455;27;20249;-53